sensor_id;sensor_type;location;lat;lon;timestamp;P1;durP1;ratioP1;P2;durP2;ratioP2
44816;SDS011;30529;53.570;9.964;2023-04-10T00:01:13;27.63;;;17.93;;
44816;SDS011;30529;53.570;9.964;2023-04-10T00:03:39;28.63;;;18.37;;
44816;SDS011;30529;53.570;9.964;2023-04-10T00:06:05;28.00;;;16.83;;
44816;SDS011;30529;53.570;9.964;2023-04-10T00:08:32;24.30;;;17.03;;
44816;SDS011;30529;53.570;9.964;2023-04-10T00:10:57;30.57;;;17.90;;
44816;SDS011;30529;53.570;9.964;2023-04-10T00:13:23;31.90;;;18.07;;
44816;SDS011;30529;53.570;9.964;2023-04-10T00:15:49;27.33;;;17.97;;
44816;SDS011;30529;53.570;9.964;2023-04-10T00:18:15;27.30;;;18.77;;
44816;SDS011;30529;53.570;9.964;2023-04-10T00:20:41;30.23;;;19.23;;
44816;SDS011;30529;53.570;9.964;2023-04-10T00:23:07;30.30;;;20.17;;
44816;SDS011;30529;53.570;9.964;2023-04-10T00:25:33;34.90;;;22.13;;
44816;SDS011;30529;53.570;9.964;2023-04-10T00:27:59;34.93;;;22.13;;
44816;SDS011;30529;53.570;9.964;2023-04-10T00:30:25;50.13;;;30.97;;
44816;SDS011;30529;53.570;9.964;2023-04-10T00:32:51;61.30;;;35.23;;
44816;SDS011;30529;53.570;9.964;2023-04-10T00:35:17;79.27;;;42.93;;
44816;SDS011;30529;53.570;9.964;2023-04-10T00:37:43;69.80;;;39.93;;
44816;SDS011;30529;53.570;9.964;2023-04-10T00:40:10;67.00;;;40.10;;
44816;SDS011;30529;53.570;9.964;2023-04-10T00:42:36;61.47;;;37.10;;
44816;SDS011;30529;53.570;9.964;2023-04-10T00:45:02;64.53;;;37.37;;
44816;SDS011;30529;53.570;9.964;2023-04-10T00:47:29;74.37;;;39.63;;
44816;SDS011;30529;53.570;9.964;2023-04-10T00:49:55;61.37;;;35.77;;
44816;SDS011;30529;53.570;9.964;2023-04-10T00:52:22;61.93;;;34.37;;
44816;SDS011;30529;53.570;9.964;2023-04-10T00:54:49;57.40;;;33.47;;
44816;SDS011;30529;53.570;9.964;2023-04-10T00:57:16;54.87;;;32.70;;
44816;SDS011;30529;53.570;9.964;2023-04-10T00:59:42;53.43;;;31.93;;
44816;SDS011;30529;53.570;9.964;2023-04-10T01:02:08;53.90;;;31.80;;
44816;SDS011;30529;53.570;9.964;2023-04-10T01:04:37;45.10;;;29.00;;
44816;SDS011;30529;53.570;9.964;2023-04-10T01:07:14;47.03;;;27.87;;
44816;SDS011;30529;53.570;9.964;2023-04-10T01:15:36;34.73;;;20.43;;
44816;SDS011;30529;53.570;9.964;2023-04-10T01:20:56;28.23;;;18.43;;
44816;SDS011;30529;53.570;9.964;2023-04-10T01:26:38;27.97;;;17.17;;
44816;SDS011;30529;53.570;9.964;2023-04-10T01:29:18;25.73;;;17.43;;
44816;SDS011;30529;53.570;9.964;2023-04-10T01:32:30;27.90;;;17.00;;
44816;SDS011;30529;53.570;9.964;2023-04-10T01:34:45;26.77;;;17.70;;
44816;SDS011;30529;53.570;9.964;2023-04-10T01:37:16;27.80;;;17.10;;
44816;SDS011;30529;53.570;9.964;2023-04-10T01:39:50;28.93;;;17.03;;
44816;SDS011;30529;53.570;9.964;2023-04-10T01:42:24;28.57;;;17.97;;
44816;SDS011;30529;53.570;9.964;2023-04-10T01:44:52;26.67;;;17.57;;
44816;SDS011;30529;53.570;9.964;2023-04-10T01:47:20;28.43;;;17.63;;
44816;SDS011;30529;53.570;9.964;2023-04-10T01:49:48;26.17;;;16.93;;
44816;SDS011;30529;53.570;9.964;2023-04-10T01:52:15;25.77;;;16.97;;
44816;SDS011;30529;53.570;9.964;2023-04-10T01:54:43;25.87;;;17.00;;
44816;SDS011;30529;53.570;9.964;2023-04-10T01:57:13;25.90;;;17.07;;
44816;SDS011;30529;53.570;9.964;2023-04-10T01:59:40;25.77;;;16.70;;
44816;SDS011;30529;53.570;9.964;2023-04-10T02:02:07;26.87;;;17.00;;
44816;SDS011;30529;53.570;9.964;2023-04-10T02:04:35;26.33;;;16.57;;
44816;SDS011;30529;53.570;9.964;2023-04-10T02:07:03;26.97;;;17.57;;
44816;SDS011;30529;53.570;9.964;2023-04-10T02:09:44;28.07;;;16.97;;
44816;SDS011;30529;53.570;9.964;2023-04-10T02:15:26;27.20;;;16.73;;
44816;SDS011;30529;53.570;9.964;2023-04-10T02:17:54;24.03;;;16.20;;
44816;SDS011;30529;53.570;9.964;2023-04-10T02:20:23;26.93;;;17.00;;
44816;SDS011;30529;53.570;9.964;2023-04-10T02:22:49;26.27;;;16.43;;
44816;SDS011;30529;53.570;9.964;2023-04-10T02:25:17;26.57;;;16.00;;
44816;SDS011;30529;53.570;9.964;2023-04-10T02:27:43;27.80;;;16.80;;
44816;SDS011;30529;53.570;9.964;2023-04-10T02:30:09;26.60;;;17.37;;
44816;SDS011;30529;53.570;9.964;2023-04-10T02:32:36;26.03;;;17.27;;
44816;SDS011;30529;53.570;9.964;2023-04-10T02:35:02;24.53;;;16.40;;
44816;SDS011;30529;53.570;9.964;2023-04-10T02:37:28;30.93;;;17.20;;
44816;SDS011;30529;53.570;9.964;2023-04-10T02:39:55;28.07;;;17.27;;
44816;SDS011;30529;53.570;9.964;2023-04-10T02:42:21;27.27;;;17.10;;
44816;SDS011;30529;53.570;9.964;2023-04-10T02:44:47;29.60;;;18.67;;
44816;SDS011;30529;53.570;9.964;2023-04-10T02:47:13;26.10;;;16.77;;
44816;SDS011;30529;53.570;9.964;2023-04-10T02:49:40;26.43;;;16.63;;
44816;SDS011;30529;53.570;9.964;2023-04-10T02:52:06;28.07;;;17.13;;
44816;SDS011;30529;53.570;9.964;2023-04-10T02:54:32;25.47;;;16.17;;
44816;SDS011;30529;53.570;9.964;2023-04-10T02:56:58;25.50;;;16.80;;
44816;SDS011;30529;53.570;9.964;2023-04-10T02:59:24;27.57;;;17.40;;
44816;SDS011;30529;53.570;9.964;2023-04-10T03:01:50;28.80;;;17.40;;
44816;SDS011;30529;53.570;9.964;2023-04-10T03:04:16;26.13;;;17.07;;
44816;SDS011;30529;53.570;9.964;2023-04-10T03:06:43;27.27;;;16.80;;
44816;SDS011;30529;53.570;9.964;2023-04-10T03:09:10;27.23;;;17.10;;
44816;SDS011;30529;53.570;9.964;2023-04-10T03:11:36;28.23;;;16.60;;
44816;SDS011;30529;53.570;9.964;2023-04-10T03:14:02;29.60;;;17.23;;
44816;SDS011;30529;53.570;9.964;2023-04-10T03:16:28;27.57;;;17.33;;
44816;SDS011;30529;53.570;9.964;2023-04-10T03:18:55;29.10;;;17.63;;
44816;SDS011;30529;53.570;9.964;2023-04-10T03:21:21;25.27;;;16.77;;
44816;SDS011;30529;53.570;9.964;2023-04-10T03:23:47;24.53;;;16.13;;
44816;SDS011;30529;53.570;9.964;2023-04-10T03:26:13;26.70;;;16.60;;
44816;SDS011;30529;53.570;9.964;2023-04-10T03:28:38;24.47;;;16.83;;
44816;SDS011;30529;53.570;9.964;2023-04-10T03:31:05;24.37;;;16.70;;
44816;SDS011;30529;53.570;9.964;2023-04-10T03:33:31;26.77;;;16.63;;
44816;SDS011;30529;53.570;9.964;2023-04-10T03:35:57;27.87;;;16.83;;
44816;SDS011;30529;53.570;9.964;2023-04-10T03:38:23;26.40;;;16.47;;
44816;SDS011;30529;53.570;9.964;2023-04-10T03:40:49;26.40;;;16.60;;
44816;SDS011;30529;53.570;9.964;2023-04-10T03:43:15;26.57;;;16.60;;
44816;SDS011;30529;53.570;9.964;2023-04-10T03:45:41;27.07;;;16.37;;
44816;SDS011;30529;53.570;9.964;2023-04-10T03:48:07;27.83;;;16.70;;
44816;SDS011;30529;53.570;9.964;2023-04-10T03:50:33;27.70;;;16.67;;
44816;SDS011;30529;53.570;9.964;2023-04-10T03:52:59;27.03;;;15.90;;
44816;SDS011;30529;53.570;9.964;2023-04-10T03:55:25;29.10;;;17.30;;
44816;SDS011;30529;53.570;9.964;2023-04-10T03:57:51;24.60;;;15.90;;
44816;SDS011;30529;53.570;9.964;2023-04-10T04:00:18;31.63;;;17.10;;
44816;SDS011;30529;53.570;9.964;2023-04-10T04:02:45;27.00;;;18.23;;
44816;SDS011;30529;53.570;9.964;2023-04-10T04:05:11;27.50;;;16.70;;
44816;SDS011;30529;53.570;9.964;2023-04-10T04:07:37;26.93;;;17.17;;
44816;SDS011;30529;53.570;9.964;2023-04-10T04:10:03;27.03;;;16.93;;
44816;SDS011;30529;53.570;9.964;2023-04-10T04:12:29;26.00;;;17.20;;
44816;SDS011;30529;53.570;9.964;2023-04-10T04:14:55;28.47;;;17.83;;
44816;SDS011;30529;53.570;9.964;2023-04-10T04:17:21;30.33;;;17.73;;
44816;SDS011;30529;53.570;9.964;2023-04-10T04:19:47;29.47;;;17.30;;
44816;SDS011;30529;53.570;9.964;2023-04-10T04:22:13;25.37;;;16.77;;
44816;SDS011;30529;53.570;9.964;2023-04-10T04:24:39;30.40;;;17.30;;
44816;SDS011;30529;53.570;9.964;2023-04-10T04:27:05;28.03;;;17.60;;
44816;SDS011;30529;53.570;9.964;2023-04-10T04:29:32;28.83;;;17.30;;
44816;SDS011;30529;53.570;9.964;2023-04-10T04:31:57;28.47;;;17.17;;
44816;SDS011;30529;53.570;9.964;2023-04-10T04:34:23;27.73;;;17.33;;
44816;SDS011;30529;53.570;9.964;2023-04-10T04:36:49;27.83;;;17.73;;
44816;SDS011;30529;53.570;9.964;2023-04-10T04:39:16;26.00;;;16.60;;
44816;SDS011;30529;53.570;9.964;2023-04-10T04:41:42;29.73;;;17.70;;
44816;SDS011;30529;53.570;9.964;2023-04-10T04:44:08;27.80;;;17.13;;
44816;SDS011;30529;53.570;9.964;2023-04-10T04:46:34;28.63;;;16.80;;
44816;SDS011;30529;53.570;9.964;2023-04-10T04:49:00;26.87;;;17.60;;
44816;SDS011;30529;53.570;9.964;2023-04-10T04:51:26;27.53;;;17.13;;
44816;SDS011;30529;53.570;9.964;2023-04-10T04:53:52;30.10;;;17.17;;
44816;SDS011;30529;53.570;9.964;2023-04-10T04:56:17;25.77;;;16.60;;
44816;SDS011;30529;53.570;9.964;2023-04-10T04:58:43;24.60;;;16.20;;
44816;SDS011;30529;53.570;9.964;2023-04-10T05:01:09;23.73;;;16.57;;
44816;SDS011;30529;53.570;9.964;2023-04-10T05:03:35;29.07;;;16.53;;
44816;SDS011;30529;53.570;9.964;2023-04-10T05:06:01;25.93;;;16.77;;
44816;SDS011;30529;53.570;9.964;2023-04-10T05:08:28;28.20;;;17.00;;
44816;SDS011;30529;53.570;9.964;2023-04-10T05:10:53;25.40;;;16.10;;
44816;SDS011;30529;53.570;9.964;2023-04-10T05:13:19;26.87;;;16.40;;
44816;SDS011;30529;53.570;9.964;2023-04-10T05:15:45;24.00;;;15.70;;
44816;SDS011;30529;53.570;9.964;2023-04-10T05:18:11;26.93;;;17.63;;
44816;SDS011;30529;53.570;9.964;2023-04-10T05:20:38;28.20;;;16.93;;
44816;SDS011;30529;53.570;9.964;2023-04-10T05:23:04;28.37;;;17.63;;
44816;SDS011;30529;53.570;9.964;2023-04-10T05:25:30;28.03;;;17.37;;
44816;SDS011;30529;53.570;9.964;2023-04-10T05:27:56;26.40;;;16.87;;
44816;SDS011;30529;53.570;9.964;2023-04-10T05:30:22;25.07;;;16.20;;
44816;SDS011;30529;53.570;9.964;2023-04-10T05:32:49;24.73;;;15.77;;
44816;SDS011;30529;53.570;9.964;2023-04-10T05:35:15;26.13;;;17.17;;
44816;SDS011;30529;53.570;9.964;2023-04-10T05:37:41;24.67;;;17.10;;
44816;SDS011;30529;53.570;9.964;2023-04-10T05:40:07;25.07;;;15.73;;
44816;SDS011;30529;53.570;9.964;2023-04-10T05:42:33;25.70;;;15.60;;
44816;SDS011;30529;53.570;9.964;2023-04-10T05:44:59;27.90;;;16.47;;
44816;SDS011;30529;53.570;9.964;2023-04-10T05:47:25;23.50;;;15.70;;
44816;SDS011;30529;53.570;9.964;2023-04-10T05:49:51;24.33;;;16.47;;
44816;SDS011;30529;53.570;9.964;2023-04-10T05:52:17;25.57;;;17.00;;
44816;SDS011;30529;53.570;9.964;2023-04-10T05:54:43;24.33;;;16.00;;
44816;SDS011;30529;53.570;9.964;2023-04-10T05:57:09;26.33;;;16.33;;
44816;SDS011;30529;53.570;9.964;2023-04-10T05:59:35;25.80;;;16.17;;
44816;SDS011;30529;53.570;9.964;2023-04-10T06:02:01;22.87;;;15.70;;
44816;SDS011;30529;53.570;9.964;2023-04-10T06:04:27;24.80;;;16.00;;
44816;SDS011;30529;53.570;9.964;2023-04-10T06:06:53;27.63;;;16.73;;
44816;SDS011;30529;53.570;9.964;2023-04-10T06:09:19;26.57;;;16.30;;
44816;SDS011;30529;53.570;9.964;2023-04-10T06:11:45;23.47;;;16.80;;
44816;SDS011;30529;53.570;9.964;2023-04-10T06:14:11;23.70;;;16.37;;
44816;SDS011;30529;53.570;9.964;2023-04-10T06:16:37;26.57;;;16.23;;
44816;SDS011;30529;53.570;9.964;2023-04-10T06:19:03;23.57;;;15.73;;
44816;SDS011;30529;53.570;9.964;2023-04-10T06:21:29;25.17;;;15.43;;
44816;SDS011;30529;53.570;9.964;2023-04-10T06:23:56;25.33;;;16.47;;
44816;SDS011;30529;53.570;9.964;2023-04-10T06:26:23;24.03;;;15.03;;
44816;SDS011;30529;53.570;9.964;2023-04-10T06:28:49;24.37;;;16.03;;
44816;SDS011;30529;53.570;9.964;2023-04-10T06:31:17;28.00;;;17.40;;
44816;SDS011;30529;53.570;9.964;2023-04-10T06:33:45;25.70;;;16.30;;
44816;SDS011;30529;53.570;9.964;2023-04-10T06:36:11;27.07;;;16.47;;
44816;SDS011;30529;53.570;9.964;2023-04-10T06:38:37;23.40;;;16.57;;
44816;SDS011;30529;53.570;9.964;2023-04-10T06:41:04;26.73;;;17.03;;
44816;SDS011;30529;53.570;9.964;2023-04-10T06:43:32;24.03;;;15.87;;
44816;SDS011;30529;53.570;9.964;2023-04-10T06:45:59;27.63;;;16.33;;
44816;SDS011;30529;53.570;9.964;2023-04-10T06:48:25;27.77;;;16.27;;
44816;SDS011;30529;53.570;9.964;2023-04-10T06:50:51;24.00;;;15.53;;
44816;SDS011;30529;53.570;9.964;2023-04-10T06:53:17;24.37;;;15.60;;
44816;SDS011;30529;53.570;9.964;2023-04-10T06:55:43;25.17;;;16.43;;
44816;SDS011;30529;53.570;9.964;2023-04-10T06:58:09;25.40;;;16.50;;
44816;SDS011;30529;53.570;9.964;2023-04-10T07:00:35;27.67;;;16.70;;
44816;SDS011;30529;53.570;9.964;2023-04-10T07:03:01;24.20;;;15.43;;
44816;SDS011;30529;53.570;9.964;2023-04-10T07:05:27;27.03;;;16.67;;
44816;SDS011;30529;53.570;9.964;2023-04-10T07:07:53;23.93;;;16.40;;
44816;SDS011;30529;53.570;9.964;2023-04-10T07:10:19;25.73;;;17.33;;
44816;SDS011;30529;53.570;9.964;2023-04-10T07:12:45;25.63;;;15.63;;
44816;SDS011;30529;53.570;9.964;2023-04-10T07:15:11;26.70;;;17.10;;
44816;SDS011;30529;53.570;9.964;2023-04-10T07:17:37;25.30;;;16.47;;
44816;SDS011;30529;53.570;9.964;2023-04-10T07:20:03;23.00;;;16.00;;
44816;SDS011;30529;53.570;9.964;2023-04-10T07:22:30;25.10;;;16.80;;
44816;SDS011;30529;53.570;9.964;2023-04-10T07:24:57;25.40;;;15.97;;
44816;SDS011;30529;53.570;9.964;2023-04-10T07:27:23;23.00;;;16.20;;
44816;SDS011;30529;53.570;9.964;2023-04-10T07:29:51;25.67;;;16.93;;
44816;SDS011;30529;53.570;9.964;2023-04-10T07:32:19;23.07;;;15.60;;
44816;SDS011;30529;53.570;9.964;2023-04-10T07:34:44;28.77;;;17.00;;
44816;SDS011;30529;53.570;9.964;2023-04-10T07:37:11;24.63;;;15.90;;
44816;SDS011;30529;53.570;9.964;2023-04-10T07:39:36;23.50;;;15.57;;
44816;SDS011;30529;53.570;9.964;2023-04-10T07:42:03;24.80;;;14.43;;
44816;SDS011;30529;53.570;9.964;2023-04-10T07:44:28;22.60;;;15.67;;
44816;SDS011;30529;53.570;9.964;2023-04-10T07:46:54;25.57;;;16.63;;
44816;SDS011;30529;53.570;9.964;2023-04-10T07:49:21;22.90;;;15.70;;
44816;SDS011;30529;53.570;9.964;2023-04-10T07:51:47;22.70;;;15.17;;
44816;SDS011;30529;53.570;9.964;2023-04-10T07:54:13;22.23;;;14.80;;
44816;SDS011;30529;53.570;9.964;2023-04-10T07:56:39;21.80;;;15.20;;
44816;SDS011;30529;53.570;9.964;2023-04-10T07:59:05;25.57;;;15.63;;
44816;SDS011;30529;53.570;9.964;2023-04-10T08:01:31;20.53;;;14.80;;
44816;SDS011;30529;53.570;9.964;2023-04-10T08:03:58;26.03;;;15.60;;
44816;SDS011;30529;53.570;9.964;2023-04-10T08:06:24;25.50;;;15.70;;
44816;SDS011;30529;53.570;9.964;2023-04-10T08:08:50;25.13;;;15.20;;
44816;SDS011;30529;53.570;9.964;2023-04-10T08:11:23;23.63;;;16.03;;
44816;SDS011;30529;53.570;9.964;2023-04-10T08:13:57;21.10;;;14.57;;
44816;SDS011;30529;53.570;9.964;2023-04-10T08:16:28;27.10;;;15.93;;
44816;SDS011;30529;53.570;9.964;2023-04-10T08:18:55;28.60;;;15.73;;
44816;SDS011;30529;53.570;9.964;2023-04-10T08:21:23;23.63;;;15.40;;
44816;SDS011;30529;53.570;9.964;2023-04-10T08:23:52;23.37;;;15.23;;
44816;SDS011;30529;53.570;9.964;2023-04-10T08:26:18;18.87;;;13.47;;
44816;SDS011;30529;53.570;9.964;2023-04-10T08:28:46;20.47;;;14.30;;
44816;SDS011;30529;53.570;9.964;2023-04-10T08:31:18;20.50;;;13.97;;
44816;SDS011;30529;53.570;9.964;2023-04-10T08:33:45;20.23;;;14.60;;
44816;SDS011;30529;53.570;9.964;2023-04-10T08:36:12;20.97;;;15.03;;
44816;SDS011;30529;53.570;9.964;2023-04-10T08:38:42;20.10;;;13.20;;
44816;SDS011;30529;53.570;9.964;2023-04-10T08:41:09;20.60;;;14.63;;
44816;SDS011;30529;53.570;9.964;2023-04-10T08:43:36;23.17;;;13.77;;
44816;SDS011;30529;53.570;9.964;2023-04-10T08:46:02;17.70;;;13.23;;
44816;SDS011;30529;53.570;9.964;2023-04-10T08:48:30;20.13;;;13.20;;
44816;SDS011;30529;53.570;9.964;2023-04-10T08:51:00;18.37;;;13.40;;
44816;SDS011;30529;53.570;9.964;2023-04-10T08:53:30;20.57;;;13.50;;
44816;SDS011;30529;53.570;9.964;2023-04-10T08:55:56;20.07;;;14.00;;
44816;SDS011;30529;53.570;9.964;2023-04-10T08:58:24;20.17;;;13.67;;
44816;SDS011;30529;53.570;9.964;2023-04-10T09:00:50;17.07;;;12.70;;
44816;SDS011;30529;53.570;9.964;2023-04-10T09:03:17;19.57;;;12.67;;
44816;SDS011;30529;53.570;9.964;2023-04-10T09:05:43;18.23;;;12.67;;
44816;SDS011;30529;53.570;9.964;2023-04-10T09:08:09;17.13;;;12.07;;
44816;SDS011;30529;53.570;9.964;2023-04-10T09:10:38;16.57;;;12.13;;
44816;SDS011;30529;53.570;9.964;2023-04-10T09:13:03;17.70;;;12.27;;
44816;SDS011;30529;53.570;9.964;2023-04-10T09:15:29;22.23;;;11.20;;
44816;SDS011;30529;53.570;9.964;2023-04-10T09:17:57;16.20;;;11.67;;
44816;SDS011;30529;53.570;9.964;2023-04-10T09:20:25;19.37;;;12.00;;
44816;SDS011;30529;53.570;9.964;2023-04-10T09:22:52;16.90;;;11.43;;
44816;SDS011;30529;53.570;9.964;2023-04-10T09:25:29;14.97;;;10.23;;
44816;SDS011;30529;53.570;9.964;2023-04-10T09:28:06;15.23;;;10.10;;
44816;SDS011;30529;53.570;9.964;2023-04-10T09:33:00;15.10;;;9.77;;
44816;SDS011;30529;53.570;9.964;2023-04-10T09:35:36;13.73;;;9.53;;
44816;SDS011;30529;53.570;9.964;2023-04-10T09:38:13;15.30;;;9.90;;
44816;SDS011;30529;53.570;9.964;2023-04-10T09:40:41;14.03;;;9.00;;
44816;SDS011;30529;53.570;9.964;2023-04-10T09:43:23;12.57;;;8.23;;
44816;SDS011;30529;53.570;9.964;2023-04-10T09:48:21;12.63;;;9.07;;
44816;SDS011;30529;53.570;9.964;2023-04-10T09:50:48;12.80;;;9.50;;
44816;SDS011;30529;53.570;9.964;2023-04-10T09:53:15;12.63;;;9.37;;
44816;SDS011;30529;53.570;9.964;2023-04-10T09:55:46;11.63;;;7.77;;
44816;SDS011;30529;53.570;9.964;2023-04-10T09:58:14;11.20;;;8.30;;
44816;SDS011;30529;53.570;9.964;2023-04-10T10:00:41;11.53;;;7.87;;
44816;SDS011;30529;53.570;9.964;2023-04-10T10:03:12;11.10;;;7.57;;
44816;SDS011;30529;53.570;9.964;2023-04-10T10:05:41;10.50;;;7.50;;
44816;SDS011;30529;53.570;9.964;2023-04-10T10:08:09;12.23;;;7.50;;
44816;SDS011;30529;53.570;9.964;2023-04-10T10:10:38;9.73;;;7.27;;
44816;SDS011;30529;53.570;9.964;2023-04-10T10:13:10;9.03;;;6.63;;
44816;SDS011;30529;53.570;9.964;2023-04-10T10:18:35;9.73;;;6.80;;
44816;SDS011;30529;53.570;9.964;2023-04-10T10:21:09;8.17;;;6.20;;
44816;SDS011;30529;53.570;9.964;2023-04-10T10:23:38;8.83;;;6.70;;
44816;SDS011;30529;53.570;9.964;2023-04-10T10:26:05;8.57;;;6.60;;
44816;SDS011;30529;53.570;9.964;2023-04-10T10:28:32;9.93;;;6.57;;
44816;SDS011;30529;53.570;9.964;2023-04-10T10:31:01;9.03;;;6.63;;
44816;SDS011;30529;53.570;9.964;2023-04-10T10:33:28;8.47;;;7.13;;
44816;SDS011;30529;53.570;9.964;2023-04-10T10:36:01;9.43;;;6.43;;
44816;SDS011;30529;53.570;9.964;2023-04-10T10:38:29;11.53;;;6.93;;
44816;SDS011;30529;53.570;9.964;2023-04-10T10:40:59;8.50;;;6.13;;
44816;SDS011;30529;53.570;9.964;2023-04-10T10:46:08;8.67;;;6.07;;
44816;SDS011;30529;53.570;9.964;2023-04-10T10:48:54;7.80;;;6.63;;
44816;SDS011;30529;53.570;9.964;2023-04-10T10:51:21;9.07;;;6.07;;
44816;SDS011;30529;53.570;9.964;2023-04-10T10:53:47;9.07;;;6.07;;
44816;SDS011;30529;53.570;9.964;2023-04-10T10:58:45;7.50;;;6.00;;
44816;SDS011;30529;53.570;9.964;2023-04-10T11:01:15;8.83;;;5.90;;
44816;SDS011;30529;53.570;9.964;2023-04-10T11:03:42;7.13;;;5.37;;
44816;SDS011;30529;53.570;9.964;2023-04-10T11:06:13;5.73;;;4.83;;
44816;SDS011;30529;53.570;9.964;2023-04-10T11:08:42;7.43;;;4.83;;
44816;SDS011;30529;53.570;9.964;2023-04-10T11:16:23;5.70;;;5.10;;
44816;SDS011;30529;53.570;9.964;2023-04-10T11:19:08;6.90;;;5.23;;
44816;SDS011;30529;53.570;9.964;2023-04-10T11:24:49;5.60;;;4.83;;
44816;SDS011;30529;53.570;9.964;2023-04-10T11:30:26;6.10;;;4.60;;
44816;SDS011;30529;53.570;9.964;2023-04-10T11:32:56;6.70;;;4.60;;
44816;SDS011;30529;53.570;9.964;2023-04-10T11:35:24;6.37;;;4.83;;
44816;SDS011;30529;53.570;9.964;2023-04-10T11:37:51;6.20;;;4.60;;
44816;SDS011;30529;53.570;9.964;2023-04-10T11:40:32;6.10;;;4.40;;
44816;SDS011;30529;53.570;9.964;2023-04-10T11:43:10;6.90;;;4.80;;
44816;SDS011;30529;53.570;9.964;2023-04-10T11:45:38;5.20;;;4.30;;
44816;SDS011;30529;53.570;9.964;2023-04-10T11:48:04;5.70;;;4.47;;
44816;SDS011;30529;53.570;9.964;2023-04-10T11:50:30;5.97;;;4.67;;
44816;SDS011;30529;53.570;9.964;2023-04-10T11:53:00;5.63;;;4.20;;
44816;SDS011;30529;53.570;9.964;2023-04-10T11:55:36;9.00;;;4.63;;
44816;SDS011;30529;53.570;9.964;2023-04-10T11:58:03;6.37;;;4.33;;
44816;SDS011;30529;53.570;9.964;2023-04-10T12:00:29;5.37;;;4.03;;
44816;SDS011;30529;53.570;9.964;2023-04-10T12:02:55;4.77;;;3.90;;
44816;SDS011;30529;53.570;9.964;2023-04-10T12:05:21;6.57;;;4.30;;
44816;SDS011;30529;53.570;9.964;2023-04-10T12:07:48;5.60;;;4.20;;
44816;SDS011;30529;53.570;9.964;2023-04-10T12:10:14;5.80;;;4.80;;
44816;SDS011;30529;53.570;9.964;2023-04-10T12:12:41;9.40;;;4.07;;
44816;SDS011;30529;53.570;9.964;2023-04-10T12:17:52;5.87;;;4.50;;
44816;SDS011;30529;53.570;9.964;2023-04-10T12:20:19;8.23;;;4.53;;
44816;SDS011;30529;53.570;9.964;2023-04-10T12:22:48;5.13;;;4.20;;
44816;SDS011;30529;53.570;9.964;2023-04-10T12:25:14;5.50;;;4.00;;
44816;SDS011;30529;53.570;9.964;2023-04-10T12:27:46;5.57;;;4.23;;
44816;SDS011;30529;53.570;9.964;2023-04-10T12:30:14;5.43;;;3.97;;
44816;SDS011;30529;53.570;9.964;2023-04-10T12:32:40;4.73;;;3.57;;
44816;SDS011;30529;53.570;9.964;2023-04-10T12:35:16;7.03;;;3.83;;
44816;SDS011;30529;53.570;9.964;2023-04-10T12:37:46;6.73;;;3.80;;
44816;SDS011;30529;53.570;9.964;2023-04-10T12:40:12;4.90;;;3.53;;
44816;SDS011;30529;53.570;9.964;2023-04-10T12:42:39;7.53;;;3.63;;
44816;SDS011;30529;53.570;9.964;2023-04-10T12:45:08;4.47;;;3.90;;
44816;SDS011;30529;53.570;9.964;2023-04-10T12:50:13;3.93;;;3.10;;
44816;SDS011;30529;53.570;9.964;2023-04-10T12:52:41;5.20;;;3.13;;
44816;SDS011;30529;53.570;9.964;2023-04-10T12:55:09;4.17;;;3.30;;
44816;SDS011;30529;53.570;9.964;2023-04-10T12:57:43;4.93;;;3.37;;
44816;SDS011;30529;53.570;9.964;2023-04-10T13:00:12;3.77;;;2.70;;
44816;SDS011;30529;53.570;9.964;2023-04-10T13:02:42;4.30;;;3.17;;
44816;SDS011;30529;53.570;9.964;2023-04-10T13:05:08;3.53;;;2.80;;
44816;SDS011;30529;53.570;9.964;2023-04-10T13:07:35;4.27;;;3.30;;
44816;SDS011;30529;53.570;9.964;2023-04-10T13:10:01;5.17;;;3.13;;
44816;SDS011;30529;53.570;9.964;2023-04-10T13:12:29;3.70;;;2.80;;
44816;SDS011;30529;53.570;9.964;2023-04-10T13:14:55;5.23;;;3.17;;
44816;SDS011;30529;53.570;9.964;2023-04-10T13:17:21;5.90;;;3.17;;
44816;SDS011;30529;53.570;9.964;2023-04-10T13:19:49;4.23;;;2.83;;
44816;SDS011;30529;53.570;9.964;2023-04-10T13:22:15;6.00;;;3.70;;
44816;SDS011;30529;53.570;9.964;2023-04-10T13:24:41;4.10;;;3.03;;
44816;SDS011;30529;53.570;9.964;2023-04-10T13:27:08;3.93;;;2.80;;
44816;SDS011;30529;53.570;9.964;2023-04-10T13:29:34;3.90;;;2.83;;
44816;SDS011;30529;53.570;9.964;2023-04-10T13:32:01;5.03;;;3.07;;
44816;SDS011;30529;53.570;9.964;2023-04-10T13:34:32;3.87;;;2.80;;
44816;SDS011;30529;53.570;9.964;2023-04-10T13:36:59;6.80;;;3.10;;
44816;SDS011;30529;53.570;9.964;2023-04-10T13:39:27;5.00;;;3.10;;
44816;SDS011;30529;53.570;9.964;2023-04-10T13:41:53;4.73;;;3.07;;
44816;SDS011;30529;53.570;9.964;2023-04-10T13:44:20;4.40;;;3.23;;
44816;SDS011;30529;53.570;9.964;2023-04-10T13:46:46;5.97;;;3.53;;
44816;SDS011;30529;53.570;9.964;2023-04-10T13:49:12;3.80;;;2.90;;
44816;SDS011;30529;53.570;9.964;2023-04-10T13:51:42;3.40;;;3.07;;
44816;SDS011;30529;53.570;9.964;2023-04-10T13:54:09;4.23;;;3.00;;
44816;SDS011;30529;53.570;9.964;2023-04-10T13:56:35;6.57;;;3.10;;
44816;SDS011;30529;53.570;9.964;2023-04-10T13:59:02;5.53;;;3.30;;
44816;SDS011;30529;53.570;9.964;2023-04-10T14:01:28;3.97;;;3.13;;
44816;SDS011;30529;53.570;9.964;2023-04-10T14:03:54;5.73;;;3.40;;
44816;SDS011;30529;53.570;9.964;2023-04-10T14:06:20;5.80;;;3.63;;
44816;SDS011;30529;53.570;9.964;2023-04-10T14:08:46;9.17;;;3.73;;
44816;SDS011;30529;53.570;9.964;2023-04-10T14:11:12;4.97;;;3.53;;
44816;SDS011;30529;53.570;9.964;2023-04-10T14:13:38;5.70;;;3.17;;
44816;SDS011;30529;53.570;9.964;2023-04-10T14:16:05;4.27;;;3.30;;
44816;SDS011;30529;53.570;9.964;2023-04-10T14:18:32;6.00;;;3.73;;
44816;SDS011;30529;53.570;9.964;2023-04-10T14:20:58;5.07;;;3.70;;
44816;SDS011;30529;53.570;9.964;2023-04-10T14:23:24;4.27;;;3.57;;
44816;SDS011;30529;53.570;9.964;2023-04-10T14:25:50;5.53;;;3.57;;
44816;SDS011;30529;53.570;9.964;2023-04-10T14:28:16;4.50;;;3.30;;
44816;SDS011;30529;53.570;9.964;2023-04-10T14:30:45;7.53;;;4.40;;
44816;SDS011;30529;53.570;9.964;2023-04-10T14:33:13;7.23;;;4.43;;
44816;SDS011;30529;53.570;9.964;2023-04-10T14:35:39;7.73;;;3.83;;
44816;SDS011;30529;53.570;9.964;2023-04-10T14:38:06;4.97;;;3.80;;
44816;SDS011;30529;53.570;9.964;2023-04-10T14:40:32;6.20;;;3.53;;
44816;SDS011;30529;53.570;9.964;2023-04-10T14:42:58;7.97;;;4.23;;
44816;SDS011;30529;53.570;9.964;2023-04-10T14:45:24;6.43;;;4.10;;
44816;SDS011;30529;53.570;9.964;2023-04-10T14:47:50;6.27;;;4.70;;
44816;SDS011;30529;53.570;9.964;2023-04-10T14:50:17;6.10;;;4.43;;
44816;SDS011;30529;53.570;9.964;2023-04-10T14:52:43;5.40;;;4.30;;
44816;SDS011;30529;53.570;9.964;2023-04-10T14:55:09;6.50;;;4.30;;
44816;SDS011;30529;53.570;9.964;2023-04-10T14:57:35;5.97;;;4.40;;
44816;SDS011;30529;53.570;9.964;2023-04-10T15:00:02;6.63;;;4.50;;
44816;SDS011;30529;53.570;9.964;2023-04-10T15:02:29;5.20;;;4.33;;
44816;SDS011;30529;53.570;9.964;2023-04-10T15:04:55;5.17;;;4.37;;
44816;SDS011;30529;53.570;9.964;2023-04-10T15:07:21;6.93;;;4.17;;
44816;SDS011;30529;53.570;9.964;2023-04-10T15:09:48;5.17;;;4.43;;
44816;SDS011;30529;53.570;9.964;2023-04-10T15:12:15;7.13;;;3.87;;
44816;SDS011;30529;53.570;9.964;2023-04-10T15:14:41;4.83;;;3.63;;
44816;SDS011;30529;53.570;9.964;2023-04-10T15:17:07;5.97;;;3.83;;